sensor_id;sensor_type;location;lat;lon;timestamp;P1;durP1;ratioP1;P2;durP2;ratioP2
62711;SDS011;48772;55.586;37.730;2022-08-01T00:00:03;11.90;;;7.10;;
62711;SDS011;48772;55.586;37.730;2022-08-01T00:02:32;15.48;;;7.38;;
62711;SDS011;48772;55.586;37.730;2022-08-01T00:04:58;14.43;;;6.97;;
62711;SDS011;48772;55.586;37.730;2022-08-01T00:07:25;13.00;;;6.70;;
62711;SDS011;48772;55.586;37.730;2022-08-01T00:09:51;11.38;;;6.80;;
62711;SDS011;48772;55.586;37.730;2022-08-01T00:12:17;9.32;;;6.57;;
62711;SDS011;48772;55.586;37.730;2022-08-01T00:14:44;11.18;;;6.82;;
62711;SDS011;48772;55.586;37.730;2022-08-01T00:17:10;14.50;;;7.32;;
62711;SDS011;48772;55.586;37.730;2022-08-01T00:19:36;10.02;;;6.30;;
62711;SDS011;48772;55.586;37.730;2022-08-01T00:22:01;12.07;;;6.38;;
62711;SDS011;48772;55.586;37.730;2022-08-01T00:24:27;9.73;;;6.35;;
62711;SDS011;48772;55.586;37.730;2022-08-01T00:26:54;11.95;;;6.75;;
62711;SDS011;48772;55.586;37.730;2022-08-01T00:29:20;12.98;;;6.47;;
62711;SDS011;48772;55.586;37.730;2022-08-01T00:31:46;12.90;;;6.80;;
62711;SDS011;48772;55.586;37.730;2022-08-01T00:34:12;13.43;;;6.78;;
62711;SDS011;48772;55.586;37.730;2022-08-01T00:36:37;10.38;;;6.18;;
62711;SDS011;48772;55.586;37.730;2022-08-01T00:39:03;9.88;;;6.10;;
62711;SDS011;48772;55.586;37.730;2022-08-01T00:41:29;12.07;;;7.10;;
62711;SDS011;48772;55.586;37.730;2022-08-01T00:43:55;10.90;;;5.82;;
62711;SDS011;48772;55.586;37.730;2022-08-01T00:46:21;9.40;;;6.07;;
62711;SDS011;48772;55.586;37.730;2022-08-01T00:48:46;11.13;;;7.32;;
62711;SDS011;48772;55.586;37.730;2022-08-01T00:51:12;12.55;;;7.60;;
62711;SDS011;48772;55.586;37.730;2022-08-01T00:53:38;17.48;;;7.47;;
62711;SDS011;48772;55.586;37.730;2022-08-01T00:56:04;11.95;;;7.10;;
62711;SDS011;48772;55.586;37.730;2022-08-01T00:58:31;11.90;;;7.18;;
62711;SDS011;48772;55.586;37.730;2022-08-01T01:00:58;14.00;;;7.22;;
62711;SDS011;48772;55.586;37.730;2022-08-01T01:03:25;11.77;;;7.40;;
62711;SDS011;48772;55.586;37.730;2022-08-01T01:06:14;15.48;;;7.90;;
62711;SDS011;48772;55.586;37.730;2022-08-01T01:17:09;10.98;;;7.32;;
62711;SDS011;48772;55.586;37.730;2022-08-01T01:19:41;11.70;;;6.78;;
62711;SDS011;48772;55.586;37.730;2022-08-01T01:22:22;14.10;;;7.05;;
62711;SDS011;48772;55.586;37.730;2022-08-01T01:30:23;14.63;;;7.93;;
62711;SDS011;48772;55.586;37.730;2022-08-01T01:32:50;15.50;;;7.57;;
62711;SDS011;48772;55.586;37.730;2022-08-01T01:35:20;15.38;;;7.82;;
62711;SDS011;48772;55.586;37.730;2022-08-01T01:37:50;12.38;;;7.35;;
62711;SDS011;48772;55.586;37.730;2022-08-01T01:40:21;10.63;;;6.78;;
62711;SDS011;48772;55.586;37.730;2022-08-01T01:42:50;10.75;;;6.65;;
62711;SDS011;48772;55.586;37.730;2022-08-01T01:45:17;10.10;;;6.45;;
62711;SDS011;48772;55.586;37.730;2022-08-01T01:47:43;11.25;;;6.63;;
62711;SDS011;48772;55.586;37.730;2022-08-01T01:50:11;10.93;;;6.30;;
62711;SDS011;48772;55.586;37.730;2022-08-01T01:52:39;10.68;;;6.40;;
62711;SDS011;48772;55.586;37.730;2022-08-01T01:55:06;8.35;;;6.25;;
62711;SDS011;48772;55.586;37.730;2022-08-01T01:57:36;10.88;;;7.00;;
62711;SDS011;48772;55.586;37.730;2022-08-01T02:00:05;8.27;;;6.65;;
62711;SDS011;48772;55.586;37.730;2022-08-01T02:02:34;10.27;;;6.53;;
62711;SDS011;48772;55.586;37.730;2022-08-01T02:05:02;21.15;;;6.60;;
62711;SDS011;48772;55.586;37.730;2022-08-01T02:07:29;12.25;;;6.60;;
62711;SDS011;48772;55.586;37.730;2022-08-01T02:09:56;7.82;;;6.22;;
62711;SDS011;48772;55.586;37.730;2022-08-01T02:12:23;12.45;;;6.20;;
62711;SDS011;48772;55.586;37.730;2022-08-01T02:15:09;10.05;;;6.68;;
62711;SDS011;48772;55.586;37.730;2022-08-01T02:17:41;14.80;;;7.10;;
62711;SDS011;48772;55.586;37.730;2022-08-01T02:20:10;16.30;;;8.07;;
62711;SDS011;48772;55.586;37.730;2022-08-01T02:22:44;13.27;;;7.18;;
62711;SDS011;48772;55.586;37.730;2022-08-01T02:25:25;12.15;;;6.78;;
62711;SDS011;48772;55.586;37.730;2022-08-01T02:30:54;12.20;;;6.68;;
62711;SDS011;48772;55.586;37.730;2022-08-01T02:33:31;13.18;;;6.60;;
62711;SDS011;48772;55.586;37.730;2022-08-01T02:36:01;10.93;;;6.60;;
62711;SDS011;48772;55.586;37.730;2022-08-01T02:38:28;13.57;;;6.60;;
62711;SDS011;48772;55.586;37.730;2022-08-01T02:40:58;13.48;;;6.78;;
62711;SDS011;48772;55.586;37.730;2022-08-01T02:43:29;13.38;;;7.32;;
62711;SDS011;48772;55.586;37.730;2022-08-01T02:45:59;12.13;;;6.18;;
62711;SDS011;48772;55.586;37.730;2022-08-01T02:48:26;15.20;;;6.72;;
62711;SDS011;48772;55.586;37.730;2022-08-01T02:50:57;13.00;;;6.32;;
62711;SDS011;48772;55.586;37.730;2022-08-01T02:53:25;10.23;;;6.20;;
62711;SDS011;48772;55.586;37.730;2022-08-01T02:55:54;17.90;;;6.32;;
62711;SDS011;48772;55.586;37.730;2022-08-01T02:58:22;12.60;;;6.55;;
62711;SDS011;48772;55.586;37.730;2022-08-01T03:00:49;10.77;;;6.00;;
62711;SDS011;48772;55.586;37.730;2022-08-01T03:03:16;11.70;;;5.75;;
62711;SDS011;48772;55.586;37.730;2022-08-01T03:05:43;9.50;;;5.50;;
62711;SDS011;48772;55.586;37.730;2022-08-01T03:08:11;12.18;;;6.20;;
62711;SDS011;48772;55.586;37.730;2022-08-01T03:10:40;16.25;;;6.88;;
62711;SDS011;48772;55.586;37.730;2022-08-01T03:13:08;13.88;;;6.13;;
62711;SDS011;48772;55.586;37.730;2022-08-01T03:15:37;14.65;;;6.40;;
62711;SDS011;48772;55.586;37.730;2022-08-01T03:18:06;18.02;;;6.47;;
62711;SDS011;48772;55.586;37.730;2022-08-01T03:20:33;11.52;;;6.10;;
62711;SDS011;48772;55.586;37.730;2022-08-01T03:23:01;14.15;;;7.15;;
62711;SDS011;48772;55.586;37.730;2022-08-01T03:25:29;15.07;;;7.10;;
62711;SDS011;48772;55.586;37.730;2022-08-01T03:27:59;12.75;;;6.00;;
62711;SDS011;48772;55.586;37.730;2022-08-01T03:30:27;10.63;;;5.97;;
62711;SDS011;48772;55.586;37.730;2022-08-01T03:32:55;9.15;;;6.38;;
62711;SDS011;48772;55.586;37.730;2022-08-01T03:35:22;8.27;;;6.00;;
62711;SDS011;48772;55.586;37.730;2022-08-01T03:37:52;9.68;;;5.82;;
62711;SDS011;48772;55.586;37.730;2022-08-01T03:40:21;14.70;;;5.82;;
62711;SDS011;48772;55.586;37.730;2022-08-01T03:42:56;7.38;;;5.47;;
62711;SDS011;48772;55.586;37.730;2022-08-01T03:45:30;9.38;;;5.00;;
62711;SDS011;48772;55.586;37.730;2022-08-01T03:48:01;10.00;;;5.63;;
62711;SDS011;48772;55.586;37.730;2022-08-01T03:50:29;12.00;;;6.07;;
62711;SDS011;48772;55.586;37.730;2022-08-01T03:53:00;9.18;;;5.63;;
62711;SDS011;48772;55.586;37.730;2022-08-01T03:55:27;10.38;;;6.07;;
62711;SDS011;48772;55.586;37.730;2022-08-01T03:57:56;10.77;;;6.13;;
62711;SDS011;48772;55.586;37.730;2022-08-01T04:00:24;8.98;;;5.43;;
62711;SDS011;48772;55.586;37.730;2022-08-01T04:02:50;10.13;;;5.72;;
62711;SDS011;48772;55.586;37.730;2022-08-01T04:05:16;11.13;;;5.97;;
62711;SDS011;48772;55.586;37.730;2022-08-01T04:07:49;11.38;;;6.30;;
62711;SDS011;48772;55.586;37.730;2022-08-01T04:10:24;10.25;;;4.50;;
62711;SDS011;48772;55.586;37.730;2022-08-01T04:12:50;18.75;;;6.07;;
62711;SDS011;48772;55.586;37.730;2022-08-01T04:15:16;11.50;;;5.53;;
62711;SDS011;48772;55.586;37.730;2022-08-01T04:17:42;12.43;;;5.65;;
62711;SDS011;48772;55.586;37.730;2022-08-01T04:20:08;12.82;;;5.63;;
62711;SDS011;48772;55.586;37.730;2022-08-01T04:22:34;9.65;;;5.07;;
62711;SDS011;48772;55.586;37.730;2022-08-01T04:25:01;10.30;;;5.53;;
62711;SDS011;48772;55.586;37.730;2022-08-01T04:27:36;17.60;;;5.32;;
62711;SDS011;48772;55.586;37.730;2022-08-01T04:30:04;14.38;;;5.18;;
62711;SDS011;48772;55.586;37.730;2022-08-01T04:32:32;8.50;;;5.03;;
62711;SDS011;48772;55.586;37.730;2022-08-01T04:35:01;10.88;;;4.88;;
62711;SDS011;48772;55.586;37.730;2022-08-01T04:37:30;10.75;;;4.88;;
62711;SDS011;48772;55.586;37.730;2022-08-01T04:39:56;9.15;;;4.43;;
62711;SDS011;48772;55.586;37.730;2022-08-01T04:42:24;15.20;;;4.63;;
62711;SDS011;48772;55.586;37.730;2022-08-01T04:44:50;8.00;;;4.72;;
62711;SDS011;48772;55.586;37.730;2022-08-01T04:47:16;8.68;;;4.70;;
62711;SDS011;48772;55.586;37.730;2022-08-01T04:49:42;14.23;;;4.72;;
62711;SDS011;48772;55.586;37.730;2022-08-01T04:52:11;9.85;;;4.45;;
62711;SDS011;48772;55.586;37.730;2022-08-01T04:54:36;7.85;;;4.82;;
62711;SDS011;48772;55.586;37.730;2022-08-01T04:57:05;8.50;;;4.50;;
62711;SDS011;48772;55.586;37.730;2022-08-01T04:59:33;10.48;;;4.60;;
62711;SDS011;48772;55.586;37.730;2022-08-01T05:02:18;12.68;;;4.53;;
62711;SDS011;48772;55.586;37.730;2022-08-01T05:04:44;8.43;;;4.43;;
62711;SDS011;48772;55.586;37.730;2022-08-01T05:07:11;9.77;;;4.45;;
62711;SDS011;48772;55.586;37.730;2022-08-01T05:09:39;9.93;;;4.90;;
62711;SDS011;48772;55.586;37.730;2022-08-01T05:12:11;6.57;;;3.97;;
62711;SDS011;48772;55.586;37.730;2022-08-01T05:14:37;8.27;;;3.78;;
62711;SDS011;48772;55.586;37.730;2022-08-01T05:17:04;9.13;;;4.05;;
62711;SDS011;48772;55.586;37.730;2022-08-01T05:19:31;12.40;;;4.13;;
62711;SDS011;48772;55.586;37.730;2022-08-01T05:21:59;6.47;;;3.95;;
62711;SDS011;48772;55.586;37.730;2022-08-01T05:24:28;5.90;;;3.75;;
62711;SDS011;48772;55.586;37.730;2022-08-01T05:26:55;4.90;;;3.70;;
62711;SDS011;48772;55.586;37.730;2022-08-01T05:29:21;11.43;;;3.47;;
62711;SDS011;48772;55.586;37.730;2022-08-01T05:31:47;10.40;;;3.80;;
62711;SDS011;48772;55.586;37.730;2022-08-01T05:34:12;11.07;;;3.67;;
62711;SDS011;48772;55.586;37.730;2022-08-01T05:36:38;10.57;;;3.80;;
62711;SDS011;48772;55.586;37.730;2022-08-01T05:39:04;10.23;;;3.90;;
62711;SDS011;48772;55.586;37.730;2022-08-01T05:41:30;4.22;;;3.22;;
62711;SDS011;48772;55.586;37.730;2022-08-01T05:43:56;5.32;;;3.60;;
62711;SDS011;48772;55.586;37.730;2022-08-01T05:46:22;8.32;;;3.70;;
62711;SDS011;48772;55.586;37.730;2022-08-01T05:48:47;12.15;;;4.38;;
62711;SDS011;48772;55.586;37.730;2022-08-01T05:51:13;13.43;;;3.65;;
62711;SDS011;48772;55.586;37.730;2022-08-01T05:53:39;6.63;;;3.25;;
62711;SDS011;48772;55.586;37.730;2022-08-01T05:56:05;8.30;;;3.28;;
62711;SDS011;48772;55.586;37.730;2022-08-01T05:58:31;4.93;;;2.65;;
62711;SDS011;48772;55.586;37.730;2022-08-01T06:00:57;5.40;;;2.30;;
62711;SDS011;48772;55.586;37.730;2022-08-01T06:03:23;7.95;;;2.60;;
62711;SDS011;48772;55.586;37.730;2022-08-01T06:05:50;8.07;;;2.38;;
62711;SDS011;48772;55.586;37.730;2022-08-01T06:08:16;10.27;;;2.30;;
62711;SDS011;48772;55.586;37.730;2022-08-01T06:10:42;8.35;;;2.30;;
62711;SDS011;48772;55.586;37.730;2022-08-01T06:13:08;6.40;;;2.55;;
62711;SDS011;48772;55.586;37.730;2022-08-01T06:15:34;6.65;;;2.45;;
62711;SDS011;48772;55.586;37.730;2022-08-01T06:18:00;7.43;;;2.38;;
62711;SDS011;48772;55.586;37.730;2022-08-01T06:20:26;5.50;;;2.33;;
62711;SDS011;48772;55.586;37.730;2022-08-01T06:22:51;5.25;;;2.20;;
62711;SDS011;48772;55.586;37.730;2022-08-01T06:25:18;4.65;;;2.38;;
62711;SDS011;48772;55.586;37.730;2022-08-01T06:27:44;3.25;;;2.15;;
62711;SDS011;48772;55.586;37.730;2022-08-01T06:30:10;5.88;;;2.25;;
62711;SDS011;48772;55.586;37.730;2022-08-01T06:32:36;3.83;;;2.13;;
62711;SDS011;48772;55.586;37.730;2022-08-01T06:35:02;8.13;;;2.80;;
62711;SDS011;48772;55.586;37.730;2022-08-01T06:37:29;6.95;;;2.58;;
62711;SDS011;48772;55.586;37.730;2022-08-01T06:39:59;6.45;;;2.50;;
62711;SDS011;48772;55.586;37.730;2022-08-01T06:42:43;3.42;;;2.47;;
62711;SDS011;48772;55.586;37.730;2022-08-01T06:45:11;4.53;;;2.50;;
62711;SDS011;48772;55.586;37.730;2022-08-01T06:47:38;3.72;;;2.42;;
62711;SDS011;48772;55.586;37.730;2022-08-01T06:50:04;6.22;;;2.55;;
62711;SDS011;48772;55.586;37.730;2022-08-01T06:52:31;3.75;;;2.65;;
62711;SDS011;48772;55.586;37.730;2022-08-01T06:54:57;4.68;;;2.65;;
62711;SDS011;48772;55.586;37.730;2022-08-01T06:57:22;3.10;;;2.50;;
62711;SDS011;48772;55.586;37.730;2022-08-01T06:59:48;8.07;;;2.90;;
62711;SDS011;48772;55.586;37.730;2022-08-01T07:02:14;5.18;;;2.92;;
62711;SDS011;48772;55.586;37.730;2022-08-01T07:04:40;3.92;;;2.75;;
62711;SDS011;48772;55.586;37.730;2022-08-01T07:07:05;4.97;;;3.00;;
62711;SDS011;48772;55.586;37.730;2022-08-01T07:09:31;5.40;;;3.00;;
62711;SDS011;48772;55.586;37.730;2022-08-01T07:11:57;6.43;;;2.97;;
62711;SDS011;48772;55.586;37.730;2022-08-01T07:14:23;2.63;;;2.42;;
62711;SDS011;48772;55.586;37.730;2022-08-01T07:16:49;5.55;;;3.10;;
62711;SDS011;48772;55.586;37.730;2022-08-01T07:19:16;4.43;;;2.72;;
62711;SDS011;48772;55.586;37.730;2022-08-01T07:21:42;4.30;;;2.55;;
62711;SDS011;48772;55.586;37.730;2022-08-01T07:24:09;7.65;;;2.90;;
62711;SDS011;48772;55.586;37.730;2022-08-01T07:26:38;4.22;;;2.75;;
62711;SDS011;48772;55.586;37.730;2022-08-01T07:29:04;5.10;;;3.00;;
62711;SDS011;48772;55.586;37.730;2022-08-01T07:31:30;7.43;;;2.90;;
62711;SDS011;48772;55.586;37.730;2022-08-01T07:33:56;7.75;;;3.15;;
62711;SDS011;48772;55.586;37.730;2022-08-01T07:36:22;6.85;;;3.28;;
62711;SDS011;48772;55.586;37.730;2022-08-01T07:38:47;6.05;;;2.83;;
62711;SDS011;48772;55.586;37.730;2022-08-01T07:41:13;3.38;;;2.60;;
62711;SDS011;48772;55.586;37.730;2022-08-01T07:43:40;4.00;;;2.63;;
62711;SDS011;48772;55.586;37.730;2022-08-01T07:46:05;6.50;;;2.53;;
62711;SDS011;48772;55.586;37.730;2022-08-01T07:48:31;9.52;;;2.50;;
62711;SDS011;48772;55.586;37.730;2022-08-01T07:50:58;3.78;;;2.50;;
62711;SDS011;48772;55.586;37.730;2022-08-01T07:53:24;3.88;;;2.35;;
62711;SDS011;48772;55.586;37.730;2022-08-01T07:55:49;3.88;;;2.30;;
62711;SDS011;48772;55.586;37.730;2022-08-01T07:58:15;4.45;;;2.70;;
62711;SDS011;48772;55.586;37.730;2022-08-01T08:00:41;4.82;;;2.30;;
62711;SDS011;48772;55.586;37.730;2022-08-01T08:03:07;2.30;;;2.10;;
62711;SDS011;48772;55.586;37.730;2022-08-01T08:05:33;6.85;;;2.05;;
62711;SDS011;48772;55.586;37.730;2022-08-01T08:08:09;2.40;;;2.20;;
62711;SDS011;48772;55.586;37.730;2022-08-01T08:10:39;3.65;;;1.90;;
62711;SDS011;48772;55.586;37.730;2022-08-01T08:13:05;2.97;;;2.10;;
62711;SDS011;48772;55.586;37.730;2022-08-01T08:15:31;4.47;;;2.15;;
62711;SDS011;48772;55.586;37.730;2022-08-01T08:17:56;4.93;;;1.88;;
62711;SDS011;48772;55.586;37.730;2022-08-01T08:20:22;8.15;;;1.92;;
62711;SDS011;48772;55.586;37.730;2022-08-01T08:22:52;3.47;;;1.80;;
62711;SDS011;48772;55.586;37.730;2022-08-01T08:25:18;2.50;;;1.95;;
62711;SDS011;48772;55.586;37.730;2022-08-01T08:27:44;4.85;;;1.70;;
62711;SDS011;48772;55.586;37.730;2022-08-01T08:30:13;2.75;;;1.88;;
62711;SDS011;48772;55.586;37.730;2022-08-01T08:32:40;6.78;;;2.38;;
62711;SDS011;48772;55.586;37.730;2022-08-01T08:35:06;3.80;;;2.25;;
62711;SDS011;48772;55.586;37.730;2022-08-01T08:37:33;3.50;;;1.80;;
62711;SDS011;48772;55.586;37.730;2022-08-01T08:40:00;4.18;;;1.90;;
62711;SDS011;48772;55.586;37.730;2022-08-01T08:42:26;3.63;;;1.80;;
62711;SDS011;48772;55.586;37.730;2022-08-01T08:44:52;2.10;;;1.60;;
62711;SDS011;48772;55.586;37.730;2022-08-01T08:47:20;3.78;;;1.83;;
62711;SDS011;48772;55.586;37.730;2022-08-01T08:49:48;5.32;;;2.30;;
62711;SDS011;48772;55.586;37.730;2022-08-01T08:52:17;2.63;;;2.30;;
62711;SDS011;48772;55.586;37.730;2022-08-01T08:54:47;7.15;;;2.20;;
62711;SDS011;48772;55.586;37.730;2022-08-01T08:57:15;7.95;;;2.38;;
62711;SDS011;48772;55.586;37.730;2022-08-01T08:59:44;2.83;;;1.70;;
62711;SDS011;48772;55.586;37.730;2022-08-01T09:02:10;3.78;;;2.10;;
62711;SDS011;48772;55.586;37.730;2022-08-01T09:04:37;2.42;;;1.80;;
62711;SDS011;48772;55.586;37.730;2022-08-01T09:07:05;4.47;;;1.75;;
62711;SDS011;48772;55.586;37.730;2022-08-01T09:09:33;2.78;;;2.00;;
62711;SDS011;48772;55.586;37.730;2022-08-01T09:11:59;3.35;;;1.85;;
62711;SDS011;48772;55.586;37.730;2022-08-01T09:14:25;4.78;;;1.83;;
62711;SDS011;48772;55.586;37.730;2022-08-01T09:17:07;5.57;;;1.70;;
62711;SDS011;48772;55.586;37.730;2022-08-01T09:19:42;3.60;;;1.88;;
62711;SDS011;48772;55.586;37.730;2022-08-01T09:22:10;4.32;;;1.77;;
62711;SDS011;48772;55.586;37.730;2022-08-01T09:24:38;5.18;;;2.00;;
62711;SDS011;48772;55.586;37.730;2022-08-01T09:27:16;3.78;;;1.75;;
62711;SDS011;48772;55.586;37.730;2022-08-01T09:29:43;1.85;;;1.58;;
62711;SDS011;48772;55.586;37.730;2022-08-01T09:32:09;1.77;;;1.50;;
62711;SDS011;48772;55.586;37.730;2022-08-01T09:34:35;3.25;;;2.40;;
62711;SDS011;48772;55.586;37.730;2022-08-01T09:37:02;15.68;;;6.97;;
62711;SDS011;48772;55.586;37.730;2022-08-01T09:39:30;5.05;;;1.95;;
62711;SDS011;48772;55.586;37.730;2022-08-01T09:41:58;2.78;;;2.05;;
62711;SDS011;48772;55.586;37.730;2022-08-01T09:44:38;5.50;;;1.60;;
62711;SDS011;48772;55.586;37.730;2022-08-01T09:47:06;3.08;;;1.60;;
62711;SDS011;48772;55.586;37.730;2022-08-01T09:49:32;8.45;;;1.85;;
62711;SDS011;48772;55.586;37.730;2022-08-01T09:52:13;6.80;;;1.70;;
62711;SDS011;48772;55.586;37.730;2022-08-01T09:54:42;3.95;;;1.77;;
62711;SDS011;48772;55.586;37.730;2022-08-01T09:57:15;6.25;;;1.92;;
62711;SDS011;48772;55.586;37.730;2022-08-01T09:59:44;5.18;;;2.03;;
62711;SDS011;48772;55.586;37.730;2022-08-01T10:02:12;2.00;;;1.67;;
62711;SDS011;48772;55.586;37.730;2022-08-01T10:04:47;5.70;;;1.83;;
62711;SDS011;48772;55.586;37.730;2022-08-01T10:07:14;4.50;;;1.80;;
62711;SDS011;48772;55.586;37.730;2022-08-01T10:09:41;2.33;;;1.25;;
62711;SDS011;48772;55.586;37.730;2022-08-01T10:12:08;3.22;;;1.85;;
62711;SDS011;48772;55.586;37.730;2022-08-01T10:14:36;2.20;;;1.60;;
62711;SDS011;48772;55.586;37.730;2022-08-01T10:17:03;1.90;;;1.80;;
62711;SDS011;48772;55.586;37.730;2022-08-01T10:19:34;3.63;;;1.73;;
62711;SDS011;48772;55.586;37.730;2022-08-01T10:22:01;1.58;;;1.40;;
62711;SDS011;48772;55.586;37.730;2022-08-01T10:24:30;2.08;;;1.73;;
62711;SDS011;48772;55.586;37.730;2022-08-01T10:27:16;2.20;;;1.63;;
62711;SDS011;48772;55.586;37.730;2022-08-01T10:29:50;10.65;;;2.03;;
62711;SDS011;48772;55.586;37.730;2022-08-01T10:32:20;2.85;;;1.70;;
62711;SDS011;48772;55.586;37.730;2022-08-01T10:34:47;3.97;;;2.17;;
62711;SDS011;48772;55.586;37.730;2022-08-01T10:37:15;1.70;;;1.60;;
62711;SDS011;48772;55.586;37.730;2022-08-01T10:39:43;3.55;;;1.88;;
62711;SDS011;48772;55.586;37.730;2022-08-01T10:42:10;9.60;;;3.58;;
62711;SDS011;48772;55.586;37.730;2022-08-01T10:44:41;2.47;;;2.22;;
62711;SDS011;48772;55.586;37.730;2022-08-01T10:47:12;6.60;;;1.88;;
62711;SDS011;48772;55.586;37.730;2022-08-01T10:49:42;2.25;;;1.80;;
62711;SDS011;48772;55.586;37.730;2022-08-01T10:52:18;2.47;;;1.60;;
62711;SDS011;48772;55.586;37.730;2022-08-01T10:54:44;4.80;;;1.88;;
62711;SDS011;48772;55.586;37.730;2022-08-01T10:57:11;3.83;;;1.92;;
62711;SDS011;48772;55.586;37.730;2022-08-01T10:59:48;2.00;;;1.65;;
62711;SDS011;48772;55.586;37.730;2022-08-01T11:02:28;3.20;;;1.70;;
62711;SDS011;48772;55.586;37.730;2022-08-01T11:05:04;5.10;;;1.95;;
62711;SDS011;48772;55.586;37.730;2022-08-01T11:07:47;4.10;;;1.80;;
62711;SDS011;48772;55.586;37.730;2022-08-01T11:13:02;4.85;;;2.10;;
62711;SDS011;48772;55.586;37.730;2022-08-01T11:16:35;4.75;;;1.83;;
62711;SDS011;48772;55.586;37.730;2022-08-01T11:23:48;3.95;;;2.03;;
62711;SDS011;48772;55.586;37.730;2022-08-01T11:34:12;3.60;;;2.13;;
62711;SDS011;48772;55.586;37.730;2022-08-01T11:37:36;3.17;;;2.08;;
62711;SDS011;48772;55.586;37.730;2022-08-01T11:41:09;5.75;;;1.90;;
62711;SDS011;48772;55.586;37.730;2022-08-01T11:44:48;4.15;;;1.85;;
62711;SDS011;48772;55.586;37.730;2022-08-01T11:48:17;2.65;;;1.63;;
62711;SDS011;48772;55.586;37.730;2022-08-01T11:51:48;6.28;;;1.98;;
62711;SDS011;48772;55.586;37.730;2022-08-01T11:55:22;4.55;;;2.20;;
62711;SDS011;48772;55.586;37.730;2022-08-01T11:58:47;4.57;;;2.10;;
62711;SDS011;48772;55.586;37.730;2022-08-01T12:02:15;4.00;;;1.90;;
62711;SDS011;48772;55.586;37.730;2022-08-01T12:12:46;4.38;;;1.58;;
62711;SDS011;48772;55.586;37.730;2022-08-01T12:16:14;4.35;;;2.20;;
62711;SDS011;48772;55.586;37.730;2022-08-01T12:19:39;5.50;;;2.53;;
62711;SDS011;48772;55.586;37.730;2022-08-01T12:23:09;1.70;;;1.60;;
62711;SDS011;48772;55.586;37.730;2022-08-01T12:26:40;4.45;;;1.80;;
62711;SDS011;48772;55.586;37.730;2022-08-01T12:30:07;3.40;;;2.05;;
62711;SDS011;48772;55.586;37.730;2022-08-01T12:33:31;3.13;;;1.50;;
62711;SDS011;48772;55.586;37.730;2022-08-01T12:37:00;2.13;;;1.55;;
62711;SDS011;48772;55.586;37.730;2022-08-01T12:40:45;5.65;;;1.88;;
62711;SDS011;48772;55.586;37.730;2022-08-01T12:44:13;1.77;;;1.60;;
62711;SDS011;48772;55.586;37.730;2022-08-01T12:47:40;1.88;;;1.48;;
62711;SDS011;48772;55.586;37.730;2022-08-01T12:51:05;5.03;;;1.65;;
62711;SDS011;48772;55.586;37.730;2022-08-01T12:54:59;4.05;;;1.80;;
62711;SDS011;48772;55.586;37.730;2022-08-01T12:58:19;2.92;;;1.75;;
62711;SDS011;48772;55.586;37.730;2022-08-01T13:01:54;3.10;;;1.65;;
62711;SDS011;48772;55.586;37.730;2022-08-01T13:05:27;1.73;;;1.63;;
62711;SDS011;48772;55.586;37.730;2022-08-01T13:08:53;4.80;;;1.70;;
62711;SDS011;48772;55.586;37.730;2022-08-01T13:12:18;5.90;;;1.92;;
62711;SDS011;48772;55.586;37.730;2022-08-01T13:19:11;2.60;;;1.83;;
62711;SDS011;48772;55.586;37.730;2022-08-01T13:22:46;4.95;;;1.80;;
62711;SDS011;48772;55.586;37.730;2022-08-01T13:26:40;4.10;;;1.80;;
62711;SDS011;48772;55.586;37.730;2022-08-01T13:30:15;5.88;;;2.00;;
62711;SDS011;48772;55.586;37.730;2022-08-01T13:33:43;1.75;;;1.65;;
62711;SDS011;48772;55.586;37.730;2022-08-01T13:37:08;4.05;;;1.80;;
62711;SDS011;48772;55.586;37.730;2022-08-01T13:40:32;6.53;;;1.70;;
62711;SDS011;48772;55.586;37.730;2022-08-01T13:43:59;3.10;;;1.45;;
62711;SDS011;48772;55.586;37.730;2022-08-01T13:47:23;3.55;;;1.70;;
62711;SDS011;48772;55.586;37.730;2022-08-01T13:50:47;2.40;;;1.80;;
62711;SDS011;48772;55.586;37.730;2022-08-01T13:54:12;2.47;;;1.47;;
62711;SDS011;48772;55.586;37.730;2022-08-01T13:57:36;2.22;;;1.70;;
62711;SDS011;48772;55.586;37.730;2022-08-01T14:01:00;3.60;;;1.80;;
62711;SDS011;48772;55.586;37.730;2022-08-01T14:04:24;2.73;;;1.80;;
62711;SDS011;48772;55.586;37.730;2022-08-01T14:07:49;5.10;;;1.73;;
62711;SDS011;48772;55.586;37.730;2022-08-01T14:14:38;5.30;;;1.95;;
62711;SDS011;48772;55.586;37.730;2022-08-01T14:18:03;2.38;;;1.70;;
62711;SDS011;48772;55.586;37.730;2022-08-01T14:21:27;6.82;;;1.98;;
62711;SDS011;48772;55.586;37.730;2022-08-01T14:24:51;2.50;;;1.90;;
62711;SDS011;48772;55.586;37.730;2022-08-01T14:28:18;6.47;;;2.00;;
62711;SDS011;48772;55.586;37.730;2022-08-01T14:31:43;5.45;;;2.20;;
62711;SDS011;48772;55.586;37.730;2022-08-01T14:35:07;6.50;;;1.80;;
62711;SDS011;48772;55.586;37.730;2022-08-01T14:38:31;2.00;;;1.80;;
62711;SDS011;48772;55.586;37.730;2022-08-01T14:41:56;2.40;;;1.77;;
62711;SDS011;48772;55.586;37.730;2022-08-01T14:45:20;7.23;;;1.73;;
62711;SDS011;48772;55.586;37.730;2022-08-01T14:48:44;2.30;;;1.80;;
62711;SDS011;48772;55.586;37.730;2022-08-01T14:52:08;3.10;;;1.80;;
62711;SDS011;48772;55.586;37.730;2022-08-01T14:55:33;5.80;;;2.10;;
62711;SDS011;48772;55.586;37.730;2022-08-01T14:58:57;5.57;;;2.30;;
62711;SDS011;48772;55.586;37.730;2022-08-01T15:02:21;11.53;;;2.23;;
62711;SDS011;48772;55.586;37.730;2022-08-01T15:05:46;4.57;;;2.38;;
62711;SDS011;48772;55.586;37.730;2022-08-01T15:09:10;6.07;;;2.47;;
62711;SDS011;48772;55.586;37.730;2022-08-01T15:12:36;11.00;;;2.55;;
62711;SDS011;48772;55.586;37.730;2022-08-01T15:16:01;9.05;;;2.78;;
62711;SDS011;48772;55.586;37.730;2022-08-01T15:19:25;10.93;;;2.43;;
62711;SDS011;48772;55.586;37.730;2022-08-01T15:22:52;6.05;;;2.55;;
62711;SDS011;48772;55.586;37.730;2022-08-01T15:26:17;5.15;;;2.20;;
62711;SDS011;48772;55.586;37.730;2022-08-01T15:29:41;13.98;;;7.13;;
62711;SDS011;48772;55.586;37.730;2022-08-01T15:33:06;2.40;;;2.20;;
62711;SDS011;48772;55.586;37.730;2022-08-01T15:36:30;10.32;;;3.17;;
62711;SDS011;48772;55.586;37.730;2022-08-01T15:39:54;7.63;;;3.55;;
62711;SDS011;48772;55.586;37.730;2022-08-01T15:43:19;3.80;;;2.80;;
62711;SDS011;48772;55.586;37.730;2022-08-01T15:46:48;7.65;;;3.67;;
62711;SDS011;48772;55.586;37.730;2022-08-01T15:50:13;6.43;;;3.85;;
62711;SDS011;48772;55.586;37.730;2022-08-01T15:53:37;8.25;;;3.97;;
62711;SDS011;48772;55.586;37.730;2022-08-01T15:57:02;9.52;;;3.40;;
62711;SDS011;48772;55.586;37.730;2022-08-01T16:00:26;12.10;;;4.32;;
62711;SDS011;48772;55.586;37.730;2022-08-01T16:03:52;11.45;;;3.83;;
62711;SDS011;48772;55.586;37.730;2022-08-01T16:07:16;14.93;;;4.78;;
62711;SDS011;48772;55.586;37.730;2022-08-01T16:10:41;19.05;;;6.10;;
62711;SDS011;48772;55.586;37.730;2022-08-01T16:14:06;12.65;;;3.97;;
62711;SDS011;48772;55.586;37.730;2022-08-01T16:17:31;14.73;;;5.70;;
62711;SDS011;48772;55.586;37.730;2022-08-01T16:20:56;13.52;;;5.35;;
62711;SDS011;48772;55.586;37.730;2022-08-01T16:24:20;13.40;;;5.55;;
62711;SDS011;48772;55.586;37.730;2022-08-01T16:27:45;12.35;;;4.68;;
62711;SDS011;48772;55.586;37.730;2022-08-01T16:31:15;14.30;;;4.20;;
62711;SDS011;48772;55.586;37.730;2022-08-01T16:34:40;14.52;;;5.13;;
62711;SDS011;48772;55.586;37.730;2022-08-01T16:38:04;17.27;;;4.40;;
62711;SDS011;48772;55.586;37.730;2022-08-01T16:41:32;13.32;;;4.18;;
62711;SDS011;48772;55.586;37.730;2022-08-01T16:44:57;15.02;;;4.10;;
62711;SDS011;48772;55.586;37.730;2022-08-01T16:48:22;19.70;;;4.78;;